createdAt,value
2023-01-25T00:01:12.891Z,12.88
2023-01-25T00:03:42.666Z,12.88
2023-01-25T00:06:12.074Z,14.25
2023-01-25T00:08:42.368Z,13.98
2023-01-25T00:11:13.112Z,15.13
2023-01-25T00:13:47.755Z,13.65
2023-01-25T00:16:23.850Z,13.95
2023-01-25T00:18:58.975Z,13.68
2023-01-25T00:21:28.745Z,12.85
2023-01-25T00:23:57.883Z,13.27
2023-01-25T00:26:35.870Z,11.73
2023-01-25T00:29:06.747Z,12.65
2023-01-25T00:31:50.331Z,12.75
2023-01-25T00:34:42.958Z,11.45
2023-01-25T00:37:18.636Z,12.75
2023-01-25T00:39:55.501Z,12.52
2023-01-25T00:42:25.187Z,12.90
2023-01-25T00:45:06.296Z,13.10
2023-01-25T00:47:36.144Z,13.43
2023-01-25T00:50:10.966Z,13.43
2023-01-25T00:52:44.737Z,12.00
2023-01-25T00:55:14.587Z,12.98
2023-01-25T00:57:53.284Z,11.88
2023-01-25T01:00:28.691Z,12.90
2023-01-25T01:03:04.561Z,12.55
2023-01-25T01:05:44.296Z,11.05
2023-01-25T01:08:17.850Z,10.57
2023-01-25T01:10:53.133Z,11.20
2023-01-25T01:13:30.969Z,11.40
2023-01-25T01:16:08.664Z,11.20
2023-01-25T01:18:44.992Z,11.55
2023-01-25T01:21:15.719Z,12.82
2023-01-25T01:23:48.855Z,13.85
2023-01-25T01:26:20.547Z,13.18
2023-01-25T01:28:52.509Z,12.95
2023-01-25T01:31:24.297Z,12.73
2023-01-25T01:34:19.720Z,12.73
2023-01-25T01:36:49.184Z,12.30
2023-01-25T01:39:19.221Z,11.82
2023-01-25T01:41:56.584Z,13.55
2023-01-25T01:44:56.051Z,13.47
2023-01-25T01:47:35.667Z,12.10
2023-01-25T01:50:18.171Z,13.02
2023-01-25T01:52:57.448Z,12.50
2023-01-25T01:55:27.045Z,12.38
2023-01-25T01:58:14.279Z,13.70
2023-01-25T02:00:43.980Z,12.60
2023-01-25T02:03:17.119Z,11.93
2023-01-25T02:05:55.161Z,12.00
2023-01-25T02:08:30.173Z,10.98
2023-01-25T02:11:08.033Z,11.40
2023-01-25T02:13:38.295Z,12.15
2023-01-25T02:16:18.646Z,11.13
2023-01-25T02:18:50.056Z,10.80
2023-01-25T02:21:20.200Z,12.48
2023-01-25T02:23:59.588Z,12.98
2023-01-25T02:26:33.448Z,13.23
2023-01-25T02:29:11.164Z,14.18
2023-01-25T02:31:40.639Z,14.02
2023-01-25T02:34:16.269Z,12.80
2023-01-25T02:36:48.502Z,13.02
2023-01-25T02:39:20.711Z,13.73
2023-01-25T02:41:56.753Z,13.05
2023-01-25T02:47:18.224Z,11.40
2023-01-25T02:49:48.795Z,12.13
2023-01-25T02:52:21.179Z,12.90
2023-01-25T02:55:01.257Z,12.25
2023-01-25T02:57:33.331Z,10.75
2023-01-25T03:00:04.396Z,12.20
2023-01-25T03:05:26.103Z,12.30
2023-01-25T03:07:55.822Z,10.57
2023-01-25T03:13:18.730Z,13.02
2023-01-25T03:15:48.771Z,11.73
2023-01-25T03:18:24.665Z,11.73
2023-01-25T03:20:54.725Z,13.32
2023-01-25T03:23:30.234Z,12.45
2023-01-25T03:26:16.556Z,11.75
2023-01-25T03:29:13.745Z,12.77
2023-01-25T03:31:48.014Z,11.75
2023-01-25T03:36:54.790Z,10.48
2023-01-25T03:39:26.917Z,11.95
2023-01-25T03:42:01.570Z,11.45
2023-01-25T03:44:34.714Z,11.20
2023-01-25T03:47:26.893Z,12.50
2023-01-25T03:49:57.309Z,12.50
2023-01-25T03:52:29.365Z,13.27
2023-01-25T03:55:00.903Z,12.93
2023-01-25T03:57:38.028Z,14.15
2023-01-25T04:00:14.012Z,13.77
2023-01-25T04:02:59.574Z,13.02
2023-01-25T04:05:35.755Z,12.85
2023-01-25T04:08:05.682Z,12.55
2023-01-25T04:10:40.536Z,15.00
2023-01-25T04:13:16.383Z,12.43
2023-01-25T04:16:01.310Z,11.77
2023-01-25T04:18:50.526Z,12.32
2023-01-25T04:21:26.354Z,11.95
2023-01-25T04:24:01.724Z,13.90
2023-01-25T04:26:35.141Z,14.23
2023-01-25T04:29:08.408Z,14.70
2023-01-25T04:31:45.058Z,16.25
2023-01-25T04:34:27.899Z,15.35
2023-01-25T04:37:06.947Z,16.98
2023-01-25T04:39:44.656Z,17.00
2023-01-25T04:42:20.394Z,16.23
2023-01-25T04:45:05.404Z,16.13
2023-01-25T04:47:37.373Z,16.98
2023-01-25T04:50:15.788Z,17.30
2023-01-25T04:52:51.585Z,18.70
2023-01-25T04:55:23.757Z,16.50
2023-01-25T04:57:56.810Z,18.08
2023-01-25T05:00:34.438Z,15.98
2023-01-25T05:03:11.147Z,17.27
2023-01-25T05:05:53.098Z,16.55
2023-01-25T05:08:27.463Z,17.25
2023-01-25T05:11:05.738Z,16.92
2023-01-25T05:13:38.455Z,17.35
2023-01-25T05:16:15.125Z,18.73
2023-01-25T05:18:49.802Z,17.52
2023-01-25T05:21:42.997Z,18.27
2023-01-25T05:24:18.856Z,18.13
2023-01-25T05:27:06.186Z,17.35
2023-01-25T05:30:03.709Z,17.80
2023-01-25T05:32:43.837Z,18.42
2023-01-25T05:35:17.146Z,18.73
2023-01-25T05:37:47.085Z,17.98
2023-01-25T05:40:23.240Z,17.65
2023-01-25T05:42:58.204Z,18.15
2023-01-25T05:45:30.102Z,16.90
2023-01-25T05:48:02.203Z,12.77
2023-01-25T05:50:36.979Z,18.35
2023-01-25T05:53:10.010Z,16.83
2023-01-25T05:55:41.314Z,17.00
2023-01-25T05:58:15.531Z,18.15
2023-01-25T06:00:47.907Z,19.27
2023-01-25T06:03:36.976Z,18.35
2023-01-25T06:06:10.081Z,18.20
2023-01-25T06:08:47.736Z,19.23
2023-01-25T06:11:25.242Z,19.52
2023-01-25T06:13:56.656Z,18.42
2023-01-25T06:16:28.608Z,20.85
2023-01-25T06:19:19.607Z,17.58
2023-01-25T06:22:21.776Z,19.00
2023-01-25T06:24:51.052Z,19.90
2023-01-25T06:27:21.467Z,19.35
2023-01-25T06:29:50.819Z,18.30
2023-01-25T06:32:20.660Z,18.30
2023-01-25T06:34:54.985Z,20.27
2023-01-25T06:37:35.645Z,20.20
2023-01-25T06:40:14.529Z,21.70
2023-01-25T06:42:46.779Z,18.77
2023-01-25T06:45:20.251Z,19.15
2023-01-25T06:47:52.260Z,20.52
2023-01-25T06:50:24.441Z,20.63
2023-01-25T06:52:55.894Z,20.60
2023-01-25T06:55:28.381Z,19.02
2023-01-25T06:58:02.439Z,20.48
2023-01-25T07:00:33.170Z,20.08
2023-01-25T07:03:06.165Z,19.83
2023-01-25T07:05:39.657Z,22.50
2023-01-25T07:08:14.466Z,20.92
2023-01-25T07:10:46.764Z,20.00
2023-01-25T07:13:16.477Z,19.90
2023-01-25T07:15:53.839Z,21.73
2023-01-25T07:18:23.498Z,18.55
2023-01-25T07:20:55.727Z,20.88
2023-01-25T07:26:19.966Z,20.35
2023-01-25T07:29:00.391Z,23.15
2023-01-25T07:31:33.225Z,21.15
2023-01-25T07:34:05.030Z,21.42
2023-01-25T07:36:46.420Z,21.60
2023-01-25T07:39:17.269Z,23.13
2023-01-25T07:41:50.290Z,21.93
2023-01-25T07:44:23.232Z,18.45
2023-01-25T07:47:02.208Z,17.88
2023-01-25T07:49:34.876Z,18.45
2023-01-25T07:52:04.329Z,18.60
2023-01-25T07:54:35.896Z,20.35
2023-01-25T07:57:05.637Z,20.77
2023-01-25T07:59:35.560Z,23.77
2023-01-25T08:02:28.036Z,21.08
2023-01-25T08:04:57.539Z,19.75
2023-01-25T08:07:29.990Z,21.73
2023-01-25T08:10:01.113Z,22.80
2023-01-25T08:12:39.419Z,24.10
2023-01-25T08:15:16.115Z,21.88
2023-01-25T08:17:48.630Z,21.60
2023-01-25T08:20:19.304Z,23.40
2023-01-25T08:22:49.866Z,20.42
2023-01-25T08:25:24.268Z,20.50
2023-01-25T08:27:57.851Z,20.17
2023-01-25T08:30:32.511Z,22.10
2023-01-25T08:33:03.112Z,21.67
2023-01-25T08:35:36.887Z,19.02
2023-01-25T08:38:10.683Z,20.25
2023-01-25T08:40:43.123Z,20.10
2023-01-25T08:43:14.267Z,17.67
2023-01-25T08:45:49.673Z,18.73
2023-01-25T08:48:19.464Z,17.40
2023-01-25T08:50:49.192Z,15.73
2023-01-25T08:56:12.928Z,17.27
2023-01-25T08:58:46.260Z,15.77
2023-01-25T09:01:16.495Z,16.00
2023-01-25T09:03:48.560Z,17.05
2023-01-25T09:06:19.945Z,17.20
2023-01-25T09:08:50.035Z,16.95
2023-01-25T09:11:27.322Z,15.05
2023-01-25T09:14:01.222Z,19.20
2023-01-25T09:16:34.768Z,18.88
2023-01-25T09:19:06.314Z,18.55
2023-01-25T09:21:42.298Z,18.80
2023-01-25T09:26:59.639Z,17.38
2023-01-25T09:29:29.457Z,16.25
2023-01-25T09:32:10.761Z,17.65
2023-01-25T09:34:55.186Z,16.58
2023-01-25T09:37:27.134Z,17.73
2023-01-25T09:40:01.796Z,18.38
2023-01-25T09:42:57.348Z,18.05
2023-01-25T09:45:41.709Z,18.83
2023-01-25T09:48:17.831Z,18.67
2023-01-25T09:51:01.341Z,18.25
2023-01-25T09:53:38.098Z,18.00
2023-01-25T09:56:17.912Z,18.40
2023-01-25T09:59:01.357Z,19.70
2023-01-25T10:01:41.406Z,18.00
2023-01-25T10:04:29.040Z,20.02
2023-01-25T10:07:01.731Z,21.00
2023-01-25T10:09:48.501Z,21.48
2023-01-25T10:12:27.340Z,20.63
2023-01-25T10:15:02.513Z,20.98
2023-01-25T10:18:04.481Z,20.77
2023-01-25T10:21:08.500Z,19.33
2023-01-25T10:23:52.803Z,21.02
2023-01-25T10:26:27.438Z,20.77
2023-01-25T10:29:05.262Z,17.95
2023-01-25T10:31:54.994Z,17.85
2023-01-25T10:34:33.182Z,17.08
2023-01-25T10:37:09.245Z,18.70
2023-01-25T10:39:47.255Z,15.75
2023-01-25T10:42:22.901Z,15.15
2023-01-25T10:44:57.002Z,16.30
2023-01-25T10:47:44.426Z,15.55
2023-01-25T10:50:33.824Z,17.35
2023-01-25T10:53:06.507Z,16.48
2023-01-25T10:56:08.610Z,17.60
2023-01-25T10:59:10.420Z,13.48
2023-01-25T11:01:47.483Z,13.40
2023-01-25T11:04:38.699Z,15.52
2023-01-25T11:07:19.678Z,14.60
2023-01-25T11:09:58.425Z,13.88
2023-01-25T11:12:31.272Z,15.73
2023-01-25T11:15:26.714Z,14.25
2023-01-25T11:18:10.108Z,11.27
2023-01-25T11:20:55.068Z,13.10
2023-01-25T11:24:12.254Z,11.93
2023-01-25T11:27:05.237Z,11.40
2023-01-25T11:29:56.901Z,10.90
2023-01-25T11:32:54.170Z,10.98
2023-01-25T11:35:54.643Z,10.15
2023-01-25T11:39:03.621Z,10.73
2023-01-25T11:41:46.320Z,9.00
2023-01-25T11:44:29.586Z,8.95
2023-01-25T11:47:10.003Z,8.90
2023-01-25T11:49:48.515Z,8.93
2023-01-25T11:52:33.808Z,8.48
2023-01-25T11:55:27.585Z,5.55
2023-01-25T11:58:29.388Z,4.90
2023-01-25T12:01:46.502Z,6.20
2023-01-25T12:04:38.595Z,6.05
2023-01-25T12:07:15.973Z,4.82
2023-01-25T12:10:45.939Z,4.50
2023-01-25T12:13:54.130Z,4.68
2023-01-25T12:16:45.729Z,4.10
2023-01-25T12:22:22.249Z,2.90
2023-01-25T12:25:24.332Z,3.00
2023-01-25T12:28:21.817Z,2.60
2023-01-25T12:31:04.151Z,1.90
2023-01-25T12:33:43.040Z,2.13
2023-01-25T12:36:27.259Z,2.72
2023-01-25T12:39:09.709Z,2.63
2023-01-25T12:41:43.579Z,1.67
2023-01-25T12:44:28.587Z,2.08
2023-01-25T12:49:43.702Z,1.67
2023-01-25T12:52:29.217Z,1.05
2023-01-25T12:55:12.768Z,1.80
2023-01-25T12:57:53.764Z,1.63
2023-01-25T13:00:27.973Z,1.70
2023-01-25T13:03:16.219Z,1.92
2023-01-25T13:05:56.083Z,3.05
2023-01-25T13:08:41.638Z,3.45
2023-01-25T13:11:27.860Z,3.35
2023-01-25T13:14:24.295Z,3.60
2023-01-25T13:17:09.720Z,3.97
2023-01-25T13:19:47.648Z,4.40
2023-01-25T13:22:44.006Z,6.40
2023-01-25T13:25:26.037Z,6.95
2023-01-25T13:28:15.443Z,7.57
2023-01-25T13:31:02.604Z,7.78
2023-01-25T13:33:34.892Z,7.63
2023-01-25T13:36:28.846Z,8.75
2023-01-25T13:39:08.291Z,9.43
2023-01-25T13:41:37.906Z,9.02
2023-01-25T13:44:23.058Z,9.18
2023-01-25T13:46:56.057Z,9.43
2023-01-25T13:49:32.868Z,12.93
2023-01-25T13:52:16.793Z,9.45
2023-01-25T13:54:54.970Z,10.38
2023-01-25T13:57:35.239Z,9.57
2023-01-25T14:00:12.799Z,10.23
2023-01-25T14:03:07.904Z,11.77
2023-01-25T14:05:37.252Z,11.25
2023-01-25T14:08:12.307Z,10.63
2023-01-25T14:10:52.376Z,9.43
2023-01-25T14:13:23.711Z,10.50
2023-01-25T14:16:07.540Z,10.85
2023-01-25T14:18:48.477Z,11.55
2023-01-25T14:21:19.573Z,10.68
2023-01-25T14:23:53.971Z,11.10
2023-01-25T14:26:26.605Z,9.90
2023-01-25T14:29:01.883Z,11.90
2023-01-25T14:31:34.969Z,10.95
2023-01-25T14:34:12.723Z,12.45
2023-01-25T14:36:44.245Z,11.98
2023-01-25T14:39:17.487Z,11.73
2023-01-25T14:42:00.486Z,9.65
2023-01-25T14:44:31.875Z,9.43
2023-01-25T14:47:19.870Z,11.65
2023-01-25T14:49:49.452Z,8.10
2023-01-25T14:52:20.548Z,9.13
2023-01-25T14:54:55.453Z,10.00
2023-01-25T14:57:40.721Z,8.68
2023-01-25T15:00:23.789Z,9.85
2023-01-25T15:03:02.621Z,9.93
2023-01-25T15:05:33.185Z,11.38
2023-01-25T15:08:16.829Z,9.77
2023-01-25T15:10:56.758Z,9.55
2023-01-25T15:13:27.554Z,10.23
2023-01-25T15:15:59.056Z,10.35
2023-01-25T15:18:48.399Z,10.55
2023-01-25T15:21:18.513Z,8.50
2023-01-25T15:23:48.723Z,8.07
2023-01-25T15:26:24.941Z,8.48
2023-01-25T15:28:58.236Z,8.27
2023-01-25T15:31:33.769Z,7.13
2023-01-25T15:34:03.526Z,6.47
2023-01-25T15:36:36.997Z,6.75
2023-01-25T15:39:06.830Z,7.13
2023-01-25T15:41:36.009Z,6.65
2023-01-25T15:44:05.820Z,7.50
2023-01-25T15:46:37.797Z,7.13
2023-01-25T15:49:09.371Z,7.13
2023-01-25T15:51:38.772Z,6.65
2023-01-25T15:54:13.188Z,8.20
2023-01-25T15:56:43.509Z,7.20
2023-01-25T15:59:17.451Z,8.50
2023-01-25T16:01:50.424Z,7.40
2023-01-25T16:04:20.145Z,7.07
2023-01-25T16:06:52.446Z,7.45
2023-01-25T16:09:22.912Z,8.43
2023-01-25T16:11:53.593Z,9.48
2023-01-25T16:14:26.618Z,10.77
2023-01-25T16:17:03.961Z,8.27
2023-01-25T16:19:34.651Z,8.18
2023-01-25T16:22:04.416Z,8.45
2023-01-25T16:24:33.939Z,7.95
2023-01-25T16:27:03.418Z,6.88
2023-01-25T16:29:32.857Z,9.35
2023-01-25T16:32:03.709Z,8.50
2023-01-25T16:34:33.374Z,9.45
2023-01-25T16:37:03.302Z,11.05
2023-01-25T16:39:32.854Z,10.20
2023-01-25T16:42:02.422Z,8.73
2023-01-25T16:44:31.807Z,8.75
2023-01-25T16:47:01.386Z,9.10
2023-01-25T16:49:33.438Z,9.48
2023-01-25T16:52:04.195Z,9.32
2023-01-25T16:54:33.648Z,8.30
2023-01-25T16:57:19.894Z,8.45
2023-01-25T16:59:49.737Z,9.35
2023-01-25T17:02:19.321Z,9.73
2023-01-25T17:04:50.346Z,8.32
2023-01-25T17:07:23.206Z,9.45
2023-01-25T17:09:54.784Z,9.65
2023-01-25T17:12:24.537Z,10.00
2023-01-25T17:14:54.176Z,10.50
2023-01-25T17:17:24.119Z,9.70
2023-01-25T17:19:56.944Z,10.70
2023-01-25T17:22:35.050Z,10.50
2023-01-25T17:25:05.184Z,10.85
2023-01-25T17:27:36.698Z,12.00
2023-01-25T17:30:06.394Z,10.52
2023-01-25T17:32:36.099Z,12.32
2023-01-25T17:35:09.749Z,11.43
2023-01-25T17:37:41.122Z,11.05
2023-01-25T17:40:11.627Z,11.80
2023-01-25T17:42:46.729Z,13.30
2023-01-25T17:45:16.183Z,11.70
2023-01-25T17:47:47.275Z,11.90
2023-01-25T17:50:26.788Z,11.50
2023-01-25T17:53:00.749Z,12.45
2023-01-25T17:55:35.158Z,14.07
2023-01-25T17:58:04.984Z,11.90
2023-01-25T18:00:35.099Z,12.93
2023-01-25T18:03:04.549Z,12.25
2023-01-25T18:05:35.527Z,11.75
2023-01-25T18:08:06.407Z,13.77
2023-01-25T18:10:38.769Z,14.23
2023-01-25T18:13:08.471Z,14.73
2023-01-25T18:15:38.019Z,14.48
2023-01-25T18:18:08.683Z,13.25
2023-01-25T18:20:39.853Z,14.38
2023-01-25T18:23:09.670Z,14.07
2023-01-25T18:25:40.084Z,13.88
2023-01-25T18:28:09.870Z,14.95
2023-01-25T18:30:41.603Z,13.10
2023-01-25T18:33:11.258Z,13.07
2023-01-25T18:35:43.756Z,13.18
2023-01-25T18:38:15.413Z,14.68
2023-01-25T18:43:16.731Z,12.25
2023-01-25T18:45:55.702Z,15.23
2023-01-25T18:48:30.352Z,14.88
2023-01-25T18:51:02.374Z,15.82
2023-01-25T18:53:33.001Z,16.60
2023-01-25T18:56:03.553Z,17.45
2023-01-25T18:58:34.385Z,15.80
2023-01-25T19:01:05.753Z,15.43
2023-01-25T19:03:35.348Z,17.75
2023-01-25T19:06:09.271Z,14.80
2023-01-25T19:08:41.564Z,14.65
2023-01-25T19:11:12.149Z,16.75
2023-01-25T19:13:43.120Z,16.25
2023-01-25T19:16:14.571Z,17.17
2023-01-25T19:18:47.021Z,15.02
2023-01-25T19:21:19.521Z,16.52
2023-01-25T19:23:49.829Z,15.90
2023-01-25T19:26:20.343Z,14.75
2023-01-25T19:28:50.252Z,14.18
2023-01-25T19:31:20.779Z,15.07
2023-01-25T19:33:50.942Z,13.75
2023-01-25T19:36:25.273Z,14.65
2023-01-25T19:38:57.176Z,13.23
2023-01-25T19:41:29.984Z,14.65
2023-01-25T19:44:00.693Z,14.20
2023-01-25T19:46:31.570Z,13.23
2023-01-25T19:49:02.139Z,14.40
2023-01-25T19:51:36.989Z,13.25
2023-01-25T19:54:09.205Z,13.10
2023-01-25T19:56:43.957Z,10.13
2023-01-25T19:59:17.069Z,12.20
2023-01-25T20:01:47.485Z,11.75
2023-01-25T20:04:19.987Z,12.82
2023-01-25T20:06:54.249Z,11.48
2023-01-25T20:09:28.172Z,11.30
2023-01-25T20:12:00.775Z,11.68
2023-01-25T20:14:30.176Z,12.68
2023-01-25T20:16:59.643Z,10.18
2023-01-25T20:19:29.600Z,13.00
2023-01-25T20:22:02.175Z,11.55
2023-01-25T20:24:32.264Z,11.90
2023-01-25T20:27:04.242Z,12.57
2023-01-25T20:29:35.924Z,13.10
2023-01-25T20:32:06.225Z,12.55
2023-01-25T20:34:35.440Z,11.02
2023-01-25T20:37:06.608Z,11.77
2023-01-25T20:39:36.102Z,11.95
2023-01-25T20:42:06.017Z,11.48
2023-01-25T20:44:35.667Z,14.20
2023-01-25T20:47:08.011Z,10.85
2023-01-25T20:49:38.412Z,12.45
2023-01-25T20:52:12.937Z,12.40
2023-01-25T20:54:43.309Z,12.57
2023-01-25T20:57:12.707Z,14.52
2023-01-25T20:59:43.140Z,14.38
2023-01-25T21:02:13.622Z,13.63
2023-01-25T21:04:49.713Z,13.43
2023-01-25T21:07:24.870Z,13.80
2023-01-25T21:09:54.004Z,12.82
2023-01-25T21:12:23.925Z,13.52
2023-01-25T21:14:53.608Z,13.55
2023-01-25T21:17:23.169Z,14.07
2023-01-25T21:19:52.639Z,12.48
2023-01-25T21:22:24.582Z,13.35
2023-01-25T21:24:55.651Z,14.25
2023-01-25T21:27:29.642Z,12.77
2023-01-25T21:30:00.147Z,12.45
2023-01-25T21:32:31.419Z,12.63
2023-01-25T21:35:00.881Z,12.82
2023-01-25T21:37:32.416Z,14.35
2023-01-25T21:40:02.407Z,12.93
2023-01-25T21:42:32.511Z,13.25
2023-01-25T21:45:33.226Z,13.23
2023-01-25T21:48:05.412Z,12.98
2023-01-25T21:50:59.392Z,11.45
2023-01-25T21:56:29.845Z,13.23
2023-01-25T21:59:00.353Z,11.30
2023-01-25T22:01:33.343Z,11.95
2023-01-25T22:04:19.438Z,11.40
2023-01-25T22:06:51.179Z,11.73
2023-01-25T22:09:44.747Z,10.75
2023-01-25T22:12:47.104Z,12.38
2023-01-25T22:15:16.671Z,12.55
2023-01-25T22:17:47.037Z,9.82
2023-01-25T22:20:23.331Z,8.43
2023-01-25T22:22:54.524Z,10.90
2023-01-25T22:25:37.430Z,10.38
2023-01-25T22:30:37.416Z,9.35
2023-01-25T22:33:07.849Z,11.85
2023-01-25T22:35:38.273Z,10.60
2023-01-25T22:38:10.386Z,11.90
2023-01-25T22:40:41.300Z,9.48
2023-01-25T22:43:14.169Z,10.60
2023-01-25T22:45:53.840Z,11.43
2023-01-25T22:48:23.446Z,9.38
2023-01-25T22:50:52.860Z,10.88
2023-01-25T22:53:22.411Z,10.38
2023-01-25T22:55:56.178Z,8.68
2023-01-25T22:58:25.660Z,9.38
2023-01-25T23:00:58.631Z,9.18
2023-01-25T23:03:28.374Z,7.30
2023-01-25T23:06:03.266Z,8.40
2023-01-25T23:08:35.973Z,7.65
2023-01-25T23:11:09.805Z,7.35
2023-01-25T23:13:42.697Z,6.68
2023-01-25T23:16:12.348Z,7.93
2023-01-25T23:18:52.898Z,6.95
2023-01-25T23:21:23.747Z,5.18
2023-01-25T23:23:53.725Z,4.63
2023-01-25T23:26:25.058Z,4.85
2023-01-25T23:28:56.788Z,4.72
2023-01-25T23:34:01.262Z,3.72
2023-01-25T23:36:32.200Z,3.53
2023-01-25T23:39:02.620Z,2.70
2023-01-25T23:41:33.588Z,2.75
2023-01-25T23:44:03.725Z,3.35
2023-01-25T23:46:35.839Z,2.83
2023-01-25T23:49:05.746Z,3.00
2023-01-25T23:51:35.222Z,1.77
2023-01-25T23:54:06.704Z,1.60
2023-01-25T23:56:37.879Z,1.55
2023-01-25T23:59:07.972Z,1.48
